Ah Gwah Ching, Minnesota
Current Conditions -  °F | °C
As of 7:15 AM on Tuesday 21 Oct 2014 (Local Time) from KY49 Reporting Station
Clear Clear  
Wind Chill: 32°   Ceiling: Unl
Heat Index: 37°   Visibility: 10mi
Dew Point: 34°   Wind: 6mph
Humidity: 90%   Direction: 140°SE
Pressure: 30.14"   Gusts: NA
Location:  47.08°N, 94.57°W
Report Text: KY49 211215Z AUTO 14005KT 10SM CLR 03/01 A3014 RMK AO2 T00280013
Loading
Personal Weather Stations






























Interactive Weather Map New forecast layout! Learn more

10-Day Weather Forecast

Advertisements
Track Severe Weather on mobile